الصفحة الرئيسية
METAR-TAF:

METAR-TAF

مطار :

Oakey, أستراليا

دائرة عرض: 27-24-41S, خط طول: 151-44-07E, ارتفاع: 407 متر

مراقبة الطقس الحالي

تاريخ ووقت الإصدار 33 دقيقة قبل الساعة 20:00UTC
ريح 5 عقدة من الغرب/الشمال الغربي
درجة الحرارة 12°درجة مئوية
الرطوبة 100%
ضغط 1018 hPa
الرؤية 10 كم أو أكثر
ملبد بالغيوم على ارتفاع 1500 قدم

METAR: YBOK 172000Z AUTO 30005KT 9999 // OVC015 12/12 Q1018

زمن: 06:33 (20:33 UTC)


TAF: مفقودة

أرصاد الطقس والتوقعات من أكثر من 4000 مطار (تقارير الطقس للمطار METAR والتنبؤ بالطقس بالمطارTAF).

المحطات المتاحة هي النقط الصفراء والحمراء على الخريطة.

حرك المؤشر فوق النقطة لمعرفة اسم المحطة.

ثم انقر لمعرفة أرصاد وتوقعات الطقس.

لتغيير الخارطة: اضغط على الأزرار الخضراء مع رمز الصليب الأسود للتكبير. على الزر الأخضر مع شرطة للتصغير، أو على الأسهم الخضراء للخرائط المجاورة.


METAR-TAF: